createdAt,value
2019-03-22T00:00:07.732Z,1012.45
2019-03-22T00:01:18.436Z,1012.45
2019-03-22T00:02:29.149Z,1012.39
2019-03-22T00:03:39.866Z,1012.39
2019-03-22T00:04:51.088Z,1012.37
2019-03-22T00:06:01.815Z,1012.40
2019-03-22T00:07:12.514Z,1012.38
2019-03-22T00:08:23.222Z,1012.36
2019-03-22T00:09:34.434Z,1012.35
2019-03-22T00:10:45.151Z,1012.34
2019-03-22T00:11:55.841Z,1012.31
2019-03-22T00:13:06.580Z,1012.31
2019-03-22T00:14:17.284Z,1012.33
2019-03-22T00:15:27.979Z,1012.36
2019-03-22T00:16:38.671Z,1012.34
2019-03-22T00:17:50.055Z,1012.33
2019-03-22T00:19:01.473Z,1012.35
2019-03-22T00:20:12.176Z,1012.36
2019-03-22T00:21:23.374Z,1012.36
2019-03-22T00:22:34.573Z,1012.35
2019-03-22T00:23:45.278Z,1012.35
2019-03-22T00:24:55.999Z,1012.33
2019-03-22T00:26:06.695Z,1012.33
2019-03-22T00:27:17.896Z,1012.35
2019-03-22T00:28:28.602Z,1012.32
2019-03-22T00:29:39.306Z,1012.33
2019-03-22T00:30:49.999Z,1012.31
2019-03-22T00:32:01.199Z,1012.33
2019-03-22T00:33:12.395Z,1012.28
2019-03-22T00:34:23.114Z,1012.27
2019-03-22T00:35:33.816Z,1012.26
2019-03-22T00:36:45.014Z,1012.23
2019-03-22T00:37:55.719Z,1012.24
2019-03-22T00:39:06.404Z,1012.18
2019-03-22T00:40:17.115Z,1012.20
2019-03-22T00:41:28.297Z,1012.20
2019-03-22T00:42:38.994Z,1012.21
2019-03-22T00:43:50.194Z,1012.24
2019-03-22T00:45:00.896Z,1012.22
2019-03-22T00:46:11.602Z,1012.24
2019-03-22T00:47:22.305Z,1012.19
2019-03-22T00:48:32.995Z,1012.21
2019-03-22T00:49:44.187Z,1012.15
2019-03-22T00:50:54.892Z,1012.17
2019-03-22T00:52:06.083Z,1012.17
2019-03-22T00:53:17.291Z,1012.17
2019-03-22T00:54:28.480Z,1012.15
2019-03-22T00:55:39.684Z,1012.14
2019-03-22T00:56:50.379Z,1012.12
2019-03-22T00:58:01.620Z,1012.13
2019-03-22T00:59:12.316Z,1012.12
2019-03-22T01:00:23.018Z,1012.10
2019-03-22T01:01:33.705Z,1012.07
2019-03-22T01:02:44.409Z,1012.06
2019-03-22T01:03:55.094Z,1012.05
2019-03-22T01:05:05.794Z,1012.08
2019-03-22T01:06:16.993Z,1012.08
2019-03-22T01:07:27.685Z,1012.09
2019-03-22T01:08:38.385Z,1012.10
2019-03-22T01:09:49.080Z,1012.08
2019-03-22T01:10:59.775Z,1012.14
2019-03-22T01:12:10.465Z,1012.11
2019-03-22T01:13:21.648Z,1012.12
2019-03-22T01:14:32.352Z,1012.11
2019-03-22T01:15:43.024Z,1012.11
2019-03-22T01:16:53.718Z,1012.06
2019-03-22T01:18:04.899Z,1012.10
2019-03-22T01:19:15.585Z,1012.11
2019-03-22T01:20:26.261Z,1012.12
2019-03-22T01:21:37.457Z,1012.12
2019-03-22T01:22:48.143Z,1012.13
2019-03-22T01:24:00.059Z,1012.14
2019-03-22T01:25:10.015Z,1012.09
2019-03-22T01:26:20.709Z,1012.12
2019-03-22T01:27:40.451Z,1012.14
2019-03-22T01:28:42.633Z,1012.13
2019-03-22T01:29:53.787Z,1012.14
2019-03-22T01:31:05.647Z,1012.11
2019-03-22T01:32:16.343Z,1012.09
2019-03-22T01:33:27.038Z,1012.09
2019-03-22T01:34:37.712Z,1012.10
2019-03-22T01:35:48.405Z,1012.07
2019-03-22T01:37:00.092Z,1012.09
2019-03-22T01:38:10.774Z,1012.04
2019-03-22T01:39:21.630Z,1012.05
2019-03-22T01:40:32.814Z,1012.05
2019-03-22T01:41:43.519Z,1012.06
2019-03-22T01:42:54.192Z,1012.03
2019-03-22T01:44:04.880Z,1012.06
2019-03-22T01:45:15.563Z,1012.04
2019-03-22T01:46:26.234Z,1012.05
2019-03-22T01:47:37.409Z,1012.01
2019-03-22T01:48:48.598Z,1012.04
2019-03-22T01:49:59.278Z,1012.03
2019-03-22T01:51:09.960Z,1012.00
2019-03-22T01:52:20.642Z,1012.05
2019-03-22T01:53:31.820Z,1012.07
2019-03-22T01:54:42.499Z,1012.03
2019-03-22T01:55:53.676Z,1012.05
2019-03-22T01:57:04.368Z,1012.06
2019-03-22T01:58:15.050Z,1012.06
2019-03-22T01:59:26.238Z,1012.07
2019-03-22T02:00:37.407Z,1012.06
2019-03-22T02:01:48.094Z,1012.06
2019-03-22T02:02:58.781Z,1012.08
2019-03-22T02:04:09.952Z,1012.08
2019-03-22T02:05:20.626Z,1012.11
2019-03-22T02:06:31.306Z,1012.14
2019-03-22T02:07:42.495Z,1012.17
2019-03-22T02:08:53.188Z,1012.17
2019-03-22T02:10:03.851Z,1012.22
2019-03-22T02:11:15.014Z,1012.19
2019-03-22T02:12:25.693Z,1012.22
2019-03-22T02:13:36.365Z,1012.20
2019-03-22T02:14:47.058Z,1012.21
2019-03-22T02:15:57.718Z,1012.19
2019-03-22T02:17:08.402Z,1012.18
2019-03-22T02:18:19.080Z,1012.15
2019-03-22T02:19:29.753Z,1012.16
2019-03-22T02:20:40.431Z,1012.14
2019-03-22T02:21:51.108Z,1012.14
2019-03-22T02:23:01.794Z,1012.10
2019-03-22T02:24:12.470Z,1012.06
2019-03-22T02:25:23.178Z,1012.03
2019-03-22T02:26:34.344Z,1012.02
2019-03-22T02:27:45.023Z,1012.01
2019-03-22T02:28:55.702Z,1011.99
2019-03-22T02:30:06.871Z,1012.01
2019-03-22T02:31:18.034Z,1011.98
2019-03-22T02:32:28.706Z,1011.98
2019-03-22T02:33:39.388Z,1012.00
2019-03-22T02:34:50.051Z,1012.00
2019-03-22T02:36:01.220Z,1012.00
2019-03-22T02:37:11.888Z,1012.03
2019-03-22T02:38:23.088Z,1011.97
2019-03-22T02:39:33.829Z,1011.99
2019-03-22T02:40:44.428Z,1011.96
2019-03-22T02:41:55.099Z,1011.92
2019-03-22T02:43:05.786Z,1011.92
2019-03-22T02:44:16.949Z,1011.95
2019-03-22T02:45:28.117Z,1011.92
2019-03-22T02:46:38.790Z,1011.93
2019-03-22T02:47:49.647Z,1011.94
2019-03-22T02:49:00.311Z,1011.91
2019-03-22T02:50:18.486Z,1011.88
2019-03-22T02:51:22.286Z,1011.90
2019-03-22T02:52:32.951Z,1011.93
2019-03-22T02:53:43.621Z,1011.93
2019-03-22T02:54:54.293Z,1011.94
2019-03-22T02:56:05.098Z,1011.91
2019-03-22T02:57:15.640Z,1011.90
2019-03-22T02:58:26.796Z,1011.91
2019-03-22T02:59:37.485Z,1011.91
2019-03-22T03:00:48.656Z,1011.89
2019-03-22T03:01:59.817Z,1011.90
2019-03-22T03:03:10.477Z,1011.87
2019-03-22T03:04:21.215Z,1011.95
2019-03-22T03:05:31.820Z,1011.90
2019-03-22T03:06:42.498Z,1011.93
2019-03-22T03:07:53.166Z,1011.91
2019-03-22T03:09:03.856Z,1011.96
2019-03-22T03:10:14.538Z,1011.94
2019-03-22T03:11:25.194Z,1011.93
2019-03-22T03:12:35.861Z,1011.97
2019-03-22T03:13:46.519Z,1011.95
2019-03-22T03:14:57.223Z,1011.94
2019-03-22T03:16:07.898Z,1011.91
2019-03-22T03:17:19.057Z,1011.90
2019-03-22T03:18:29.725Z,1011.92
2019-03-22T03:19:40.900Z,1011.94
2019-03-22T03:20:52.057Z,1011.89
2019-03-22T03:22:02.720Z,1011.93
2019-03-22T03:23:13.477Z,1011.90
2019-03-22T03:24:24.047Z,1011.92
2019-03-22T03:25:34.722Z,1011.94
2019-03-22T03:26:45.377Z,1011.90
2019-03-22T03:27:56.041Z,1011.89
2019-03-22T03:29:07.205Z,1011.90
2019-03-22T03:30:18.445Z,1011.92
2019-03-22T03:31:29.522Z,1011.93
2019-03-22T03:32:40.190Z,1011.96
2019-03-22T03:33:51.435Z,1011.94
2019-03-22T03:35:02.079Z,1011.93
2019-03-22T03:36:12.680Z,1011.97
2019-03-22T03:37:23.341Z,1011.95
2019-03-22T03:38:34.037Z,1011.95
2019-03-22T03:39:45.155Z,1011.96
2019-03-22T03:40:55.826Z,1011.98
2019-03-22T03:42:06.495Z,1011.93
2019-03-22T03:43:17.179Z,1011.96
2019-03-22T03:44:27.831Z,1011.90
2019-03-22T03:45:38.993Z,1011.91
2019-03-22T03:46:50.157Z,1011.86
2019-03-22T03:48:01.323Z,1011.85
2019-03-22T03:49:12.498Z,1011.81
2019-03-22T03:50:23.683Z,1011.86
2019-03-22T03:51:34.334Z,1011.88
2019-03-22T03:52:45.612Z,1011.89
2019-03-22T03:53:56.587Z,1011.85
2019-03-22T03:55:07.261Z,1011.80
2019-03-22T03:56:17.927Z,1011.88
2019-03-22T03:57:29.106Z,1011.82
2019-03-22T03:58:51.698Z,1011.75
2019-03-22T03:59:50.439Z,1011.79
2019-03-22T04:01:01.307Z,1011.74
2019-03-22T04:02:11.975Z,1011.73
2019-03-22T04:03:22.648Z,1011.74
2019-03-22T04:04:34.430Z,1011.73
2019-03-22T04:05:45.635Z,1011.71
2019-03-22T04:06:56.304Z,1011.75
2019-03-22T04:08:06.964Z,1011.70
2019-03-22T04:09:17.622Z,1011.68
2019-03-22T04:10:28.281Z,1011.69
2019-03-22T04:11:38.956Z,1011.65
2019-03-22T04:12:50.129Z,1011.68
2019-03-22T04:14:00.794Z,1011.75
2019-03-22T04:15:12.959Z,1011.69
2019-03-22T04:16:24.102Z,1011.71
2019-03-22T04:17:34.769Z,1011.71
2019-03-22T04:18:45.941Z,1011.77
2019-03-22T04:19:56.581Z,1011.75
2019-03-22T04:21:07.242Z,1011.73
2019-03-22T04:22:17.914Z,1011.70
2019-03-22T04:23:29.079Z,1011.71
2019-03-22T04:24:40.230Z,1011.67
2019-03-22T04:25:50.905Z,1011.71
2019-03-22T04:27:02.056Z,1011.71
2019-03-22T04:28:12.728Z,1011.69
2019-03-22T04:29:23.402Z,1011.68
2019-03-22T04:30:34.549Z,1011.66
2019-03-22T04:31:45.712Z,1011.69
2019-03-22T04:32:56.877Z,1011.66
2019-03-22T04:34:08.051Z,1011.67
2019-03-22T04:35:18.728Z,1011.73
2019-03-22T04:36:29.389Z,1011.70
2019-03-22T04:37:40.059Z,1011.71
2019-03-22T04:38:51.205Z,1011.73
2019-03-22T04:40:01.864Z,1011.76
2019-03-22T04:41:12.518Z,1011.70
2019-03-22T04:42:23.172Z,1011.69
2019-03-22T04:43:33.837Z,1011.73
2019-03-22T04:44:44.493Z,1011.74
2019-03-22T04:45:55.142Z,1011.70
2019-03-22T04:47:05.799Z,1011.65
2019-03-22T04:48:16.463Z,1011.69
2019-03-22T04:49:27.620Z,1011.66
2019-03-22T04:50:38.267Z,1011.66
2019-03-22T04:51:49.420Z,1011.68
2019-03-22T04:53:00.090Z,1011.72
2019-03-22T04:54:11.300Z,1011.73
2019-03-22T04:55:22.891Z,1011.70
2019-03-22T04:56:34.044Z,1011.77
2019-03-22T04:57:44.706Z,1011.75
2019-03-22T04:58:55.368Z,1011.75
2019-03-22T05:00:06.518Z,1011.73
2019-03-22T05:01:17.171Z,1011.69
2019-03-22T05:02:27.833Z,1011.72
2019-03-22T05:03:38.492Z,1011.73
2019-03-22T05:04:49.641Z,1011.74
2019-03-22T05:06:00.797Z,1011.78
2019-03-22T05:07:11.615Z,1011.71
2019-03-22T05:08:22.277Z,1011.71
2019-03-22T05:09:32.931Z,1011.72
2019-03-22T05:10:43.586Z,1011.74
2019-03-22T05:11:54.241Z,1011.75
2019-03-22T05:13:04.908Z,1011.78
2019-03-22T05:14:16.054Z,1011.82
2019-03-22T05:15:27.209Z,1011.84
2019-03-22T05:16:37.898Z,1011.83
2019-03-22T05:17:48.506Z,1011.84
2019-03-22T05:18:59.163Z,1011.85
2019-03-22T05:20:09.812Z,1011.87
2019-03-22T05:21:20.467Z,1011.89
2019-03-22T05:22:31.136Z,1011.92
2019-03-22T05:23:41.815Z,1011.91
2019-03-22T05:24:52.461Z,1011.96
2019-03-22T05:26:03.118Z,1011.95
2019-03-22T05:27:13.772Z,1011.97
2019-03-22T05:28:24.917Z,1011.99
2019-03-22T05:29:38.734Z,1012.01
2019-03-22T05:30:46.722Z,1011.98
2019-03-22T05:31:57.374Z,1011.99
2019-03-22T05:33:08.038Z,1012.02
2019-03-22T05:34:19.187Z,1012.01
2019-03-22T05:35:29.836Z,1012.01
2019-03-22T05:36:40.503Z,1012.00
2019-03-22T05:37:51.661Z,1011.99
2019-03-22T05:39:02.319Z,1011.98
2019-03-22T05:40:12.991Z,1011.99
2019-03-22T05:41:23.632Z,1011.94
2019-03-22T05:42:34.293Z,1012.04
2019-03-22T05:43:45.616Z,1012.00
2019-03-22T05:44:56.270Z,1011.98
2019-03-22T05:46:06.922Z,1012.02
2019-03-22T05:47:17.593Z,1012.06
2019-03-22T05:48:28.734Z,1012.09
2019-03-22T05:49:39.895Z,1012.08
2019-03-22T05:50:50.557Z,1012.12
2019-03-22T05:52:02.207Z,1012.15
2019-03-22T05:53:12.896Z,1012.14
2019-03-22T05:54:24.058Z,1012.18
2019-03-22T05:55:35.216Z,1012.19
2019-03-22T05:56:46.357Z,1012.21
2019-03-22T05:57:57.627Z,1012.19
2019-03-22T05:59:08.773Z,1012.23
2019-03-22T06:00:19.941Z,1012.18
2019-03-22T06:01:31.089Z,1012.21
2019-03-22T06:02:41.747Z,1012.20
2019-03-22T06:03:52.403Z,1012.21
2019-03-22T06:05:03.077Z,1012.23
2019-03-22T06:06:14.270Z,1012.22
2019-03-22T06:07:25.426Z,1012.22
2019-03-22T06:08:36.079Z,1012.20
2019-03-22T06:09:46.740Z,1012.21
2019-03-22T06:10:57.409Z,1012.22
2019-03-22T06:12:08.066Z,1012.23
2019-03-22T06:13:18.720Z,1012.22
2019-03-22T06:14:29.393Z,1012.27
2019-03-22T06:15:40.071Z,1012.30
2019-03-22T06:16:51.230Z,1012.34
2019-03-22T06:18:01.895Z,1012.35
2019-03-22T06:19:12.556Z,1012.30
2019-03-22T06:20:24.227Z,1012.32
2019-03-22T06:21:34.884Z,1012.30
2019-03-22T06:22:45.540Z,1012.32
2019-03-22T06:23:56.199Z,1012.28
2019-03-22T06:25:07.356Z,1012.30
2019-03-22T06:26:18.026Z,1012.32
2019-03-22T06:27:28.718Z,1012.35
2019-03-22T06:28:39.380Z,1012.35
2019-03-22T06:29:54.359Z,1012.35
2019-03-22T06:31:00.705Z,1012.36
2019-03-22T06:32:11.360Z,1012.38
2019-03-22T06:33:22.518Z,1012.42
2019-03-22T06:34:33.187Z,1012.39
2019-03-22T06:35:43.864Z,1012.34
2019-03-22T06:36:54.548Z,1012.41
2019-03-22T06:38:05.710Z,1012.38
2019-03-22T06:39:16.374Z,1012.43
2019-03-22T06:40:27.054Z,1012.41
2019-03-22T06:41:38.221Z,1012.41
2019-03-22T06:42:48.895Z,1012.40
2019-03-22T06:43:59.557Z,1012.39
2019-03-22T06:45:10.232Z,1012.43
2019-03-22T06:46:20.901Z,1012.40
2019-03-22T06:47:31.591Z,1012.42
2019-03-22T06:48:42.257Z,1012.45
2019-03-22T06:49:52.935Z,1012.39
2019-03-22T06:51:03.617Z,1012.38
2019-03-22T06:52:14.321Z,1012.38
2019-03-22T06:53:24.995Z,1012.42
2019-03-22T06:54:35.670Z,1012.37
2019-03-22T06:55:46.347Z,1012.38
2019-03-22T06:56:57.053Z,1012.42
2019-03-22T06:58:07.737Z,1012.40
2019-03-22T06:59:18.914Z,1012.40
2019-03-22T07:00:29.603Z,1012.40
2019-03-22T07:01:40.287Z,1012.42
2019-03-22T07:02:50.972Z,1012.42
2019-03-22T07:04:01.648Z,1012.47
2019-03-22T07:05:13.576Z,1012.47
2019-03-22T07:06:23.641Z,1012.49
2019-03-22T07:07:34.835Z,1012.47
2019-03-22T07:08:45.518Z,1012.45
2019-03-22T07:09:56.208Z,1012.47
2019-03-22T07:11:06.898Z,1012.50
2019-03-22T07:12:17.580Z,1012.51
2019-03-22T07:13:28.261Z,1012.53
2019-03-22T07:14:39.438Z,1012.52
2019-03-22T07:15:50.376Z,1012.52
2019-03-22T07:17:01.691Z,1012.55
2019-03-22T07:18:12.808Z,1012.59
2019-03-22T07:19:23.986Z,1012.58
2019-03-22T07:20:34.691Z,1012.59
2019-03-22T07:21:45.388Z,1012.59
2019-03-22T07:22:56.109Z,1012.59
2019-03-22T07:24:06.797Z,1012.56
2019-03-22T07:25:17.990Z,1012.58
2019-03-22T07:26:30.087Z,1012.59
2019-03-22T07:27:39.452Z,1012.59
2019-03-22T07:28:50.154Z,1012.53
2019-03-22T07:30:00.865Z,1012.55
2019-03-22T07:31:12.069Z,1012.52
2019-03-22T07:32:24.730Z,1012.49
2019-03-22T07:33:35.929Z,1012.50
2019-03-22T07:34:46.638Z,1012.55
2019-03-22T07:35:57.847Z,1012.50
2019-03-22T07:37:08.552Z,1012.53
2019-03-22T07:38:19.262Z,1012.54
2019-03-22T07:39:29.967Z,1012.50
2019-03-22T07:40:40.690Z,1012.50
2019-03-22T07:41:51.405Z,1012.48
2019-03-22T07:43:02.615Z,1012.41
2019-03-22T07:44:13.340Z,1012.50
2019-03-22T07:45:25.072Z,1012.46
2019-03-22T07:46:35.774Z,1012.50
2019-03-22T07:47:47.010Z,1012.51
2019-03-22T07:48:57.720Z,1012.50
2019-03-22T07:50:08.930Z,1012.50
2019-03-22T07:51:20.160Z,1012.49
2019-03-22T07:52:30.880Z,1012.46
2019-03-22T07:53:41.600Z,1012.44
2019-03-22T07:54:52.331Z,1012.43
2019-03-22T07:56:03.630Z,1012.44
2019-03-22T07:57:14.870Z,1012.40
2019-03-22T07:58:25.596Z,1012.34
2019-03-22T07:59:36.334Z,1012.33
2019-03-22T08:00:47.631Z,1012.28
2019-03-22T08:01:58.856Z,1012.26
2019-03-22T08:03:10.100Z,1012.26
2019-03-22T08:04:20.824Z,1012.22
2019-03-22T08:05:31.565Z,1012.26
2019-03-22T08:06:42.794Z,1012.25
2019-03-22T08:07:56.036Z,1012.24
2019-03-22T08:09:05.257Z,1012.15
2019-03-22T08:10:16.496Z,1012.16
2019-03-22T08:11:27.298Z,1012.14
2019-03-22T08:12:37.999Z,1012.11
2019-03-22T08:13:48.726Z,1012.12
2019-03-22T08:14:59.628Z,1012.13
2019-03-22T08:16:10.864Z,1012.13
2019-03-22T08:17:22.123Z,1012.14
2019-03-22T08:18:32.878Z,1012.16
2019-03-22T08:19:43.614Z,1012.17
2019-03-22T08:20:54.366Z,1012.14
2019-03-22T08:22:05.572Z,1012.16
2019-03-22T08:23:16.820Z,1012.20
2019-03-22T08:24:27.599Z,1012.16
2019-03-22T08:25:38.829Z,1012.15
2019-03-22T08:26:49.590Z,1012.15
2019-03-22T08:28:00.857Z,1012.17
2019-03-22T08:29:11.621Z,1012.07
2019-03-22T08:30:22.910Z,1012.11
2019-03-22T08:31:34.139Z,1012.08
2019-03-22T08:32:44.899Z,1012.06
2019-03-22T08:33:56.158Z,1012.07
2019-03-22T08:35:06.917Z,1011.98
2019-03-22T08:36:17.740Z,1011.98
2019-03-22T08:37:28.477Z,1011.95
2019-03-22T08:38:39.763Z,1011.99
2019-03-22T08:39:50.516Z,1012.01
2019-03-22T08:41:01.789Z,1011.99
2019-03-22T08:42:12.563Z,1012.01
2019-03-22T08:43:23.908Z,1011.99
2019-03-22T08:44:35.134Z,1012.03
2019-03-22T08:45:45.903Z,1012.06
2019-03-22T08:46:56.700Z,1012.03
2019-03-22T08:48:07.657Z,1011.99
2019-03-22T08:49:18.950Z,1012.03
2019-03-22T08:50:30.222Z,1012.03
2019-03-22T08:51:40.994Z,1012.02
2019-03-22T08:52:51.841Z,1011.99
2019-03-22T08:54:03.096Z,1011.99
2019-03-22T08:55:14.232Z,1011.91
2019-03-22T08:56:25.026Z,1011.86
2019-03-22T08:57:35.806Z,1011.83
2019-03-22T08:58:47.115Z,1011.79
2019-03-22T08:59:58.436Z,1011.72
2019-03-22T09:01:09.707Z,1011.64
2019-03-22T09:02:20.554Z,1011.53
2019-03-22T09:03:31.405Z,1011.55
2019-03-22T09:04:42.220Z,1011.44
2019-03-22T09:05:53.007Z,1011.43
2019-03-22T09:07:03.855Z,1011.30
2019-03-22T09:08:16.320Z,1011.16
2019-03-22T09:09:27.055Z,1010.99
2019-03-22T09:10:38.435Z,1010.91
2019-03-22T09:11:49.223Z,1010.85
2019-03-22T09:13:00.524Z,1010.76
2019-03-22T09:14:11.448Z,1010.80
2019-03-22T09:15:22.749Z,1010.72
2019-03-22T09:16:34.123Z,1010.65
2019-03-22T09:17:45.648Z,1010.50
2019-03-22T09:18:56.576Z,1010.29
2019-03-22T09:20:07.474Z,1010.10
2019-03-22T09:21:18.308Z,1010.03
2019-03-22T09:22:29.271Z,1010.14
2019-03-22T09:23:40.091Z,1010.07
2019-03-22T09:24:50.971Z,1009.83
2019-03-22T09:26:01.874Z,1009.61
2019-03-22T09:27:12.811Z,1009.56
2019-03-22T09:28:23.700Z,1009.29
2019-03-22T09:29:34.679Z,1008.85
2019-03-22T09:30:46.569Z,1008.56
2019-03-22T09:31:57.498Z,1007.98
2019-03-22T09:33:08.456Z,1007.74
2019-03-22T09:34:19.403Z,1007.60
2019-03-22T09:35:30.349Z,1007.58
2019-03-22T09:36:41.331Z,1007.34
2019-03-22T09:37:52.809Z,1007.47
2019-03-22T09:39:04.335Z,1007.63
2019-03-22T09:40:15.302Z,1007.64
2019-03-22T09:41:26.271Z,1007.67
2019-03-22T09:42:37.341Z,1007.89
2019-03-22T09:43:48.320Z,1008.00
2019-03-22T09:44:59.301Z,1008.18
2019-03-22T09:46:10.385Z,1008.19
2019-03-22T09:47:21.900Z,1008.21
2019-03-22T09:48:33.468Z,1008.13
2019-03-22T09:49:44.412Z,1008.28
2019-03-22T09:50:55.443Z,1008.21
2019-03-22T09:52:06.538Z,1008.25
2019-03-22T09:53:17.547Z,1008.29
2019-03-22T09:54:28.602Z,1008.03
2019-03-22T09:55:39.641Z,1008.27
2019-03-22T09:56:50.701Z,1008.38
2019-03-22T09:58:01.761Z,1008.19
2019-03-22T09:59:12.825Z,1008.18
2019-03-22T10:00:23.922Z,1007.99
2019-03-22T10:01:34.980Z,1007.73
2019-03-22T10:02:46.613Z,1007.66
2019-03-22T10:03:57.712Z,1007.32
2019-03-22T10:05:08.848Z,1007.40
2019-03-22T10:06:20.427Z,1007.50
2019-03-22T10:07:31.579Z,1007.51
2019-03-22T10:08:42.688Z,1007.34
2019-03-22T10:09:53.867Z,1007.21
2019-03-22T10:11:04.937Z,1007.24
2019-03-22T10:12:16.108Z,1007.35
2019-03-22T10:13:27.253Z,1007.33
2019-03-22T10:14:38.425Z,1007.09
2019-03-22T10:15:49.590Z,1006.70
2019-03-22T10:17:00.781Z,1006.26
2019-03-22T10:18:11.953Z,1006.34
2019-03-22T10:19:23.156Z,1006.43
2019-03-22T10:20:34.371Z,1005.77
2019-03-22T10:21:45.621Z,1006.09
2019-03-22T10:22:56.863Z,1006.12
2019-03-22T10:24:08.646Z,1006.33
2019-03-22T10:25:19.902Z,1006.41
2019-03-22T10:26:31.143Z,1006.69
2019-03-22T10:27:42.364Z,1006.87
2019-03-22T10:28:53.600Z,1007.23
2019-03-22T10:30:04.862Z,1007.21
2019-03-22T10:31:16.078Z,1007.08
2019-03-22T10:32:27.320Z,1007.13
2019-03-22T10:33:38.604Z,1007.19
2019-03-22T10:34:49.801Z,1007.26
2019-03-22T10:36:01.046Z,1007.26
2019-03-22T10:37:12.283Z,1007.23
2019-03-22T10:38:30.867Z,1007.14
2019-03-22T10:39:34.814Z,1006.86
2019-03-22T10:40:46.743Z,1006.90
2019-03-22T10:41:57.909Z,1006.64
2019-03-22T10:43:09.204Z,1007.06
2019-03-22T10:44:20.461Z,1007.04
2019-03-22T10:45:31.785Z,1007.13
2019-03-22T10:46:43.064Z,1007.28
2019-03-22T10:47:54.338Z,1007.08
2019-03-22T10:49:05.658Z,1006.86
2019-03-22T10:50:16.970Z,1006.67
2019-03-22T10:51:28.314Z,1006.75
2019-03-22T10:52:40.096Z,1006.93
2019-03-22T10:53:51.471Z,1006.52
2019-03-22T10:55:17.205Z,1006.00
2019-03-22T10:56:14.698Z,1006.52
2019-03-22T10:57:25.965Z,1006.60
2019-03-22T10:58:37.314Z,1006.13
2019-03-22T10:59:48.663Z,1006.39
2019-03-22T11:01:00.002Z,1006.68
2019-03-22T11:02:11.361Z,1007.03
2019-03-22T11:03:22.706Z,1006.87
2019-03-22T11:04:34.066Z,1006.76
2019-03-22T11:05:45.438Z,1006.23
2019-03-22T11:06:56.814Z,1006.56
2019-03-22T11:08:08.205Z,1006.46
2019-03-22T11:09:19.573Z,1006.69
2019-03-22T11:10:30.940Z,1006.88
2019-03-22T11:11:42.308Z,1007.08
2019-03-22T11:12:53.688Z,1006.73
2019-03-22T11:14:05.060Z,1006.96
2019-03-22T11:15:16.441Z,1006.78
2019-03-22T11:16:27.804Z,1006.41
2019-03-22T11:17:39.194Z,1006.03
2019-03-22T11:18:50.586Z,1006.01
2019-03-22T11:20:01.985Z,1006.08
2019-03-22T11:21:13.402Z,1005.69
2019-03-22T11:22:24.837Z,1005.01
2019-03-22T11:23:36.288Z,1005.12
2019-03-22T11:24:47.736Z,1005.56
2019-03-22T11:26:04.056Z,1005.59
2019-03-22T11:27:10.687Z,1005.57
2019-03-22T11:28:22.179Z,1005.48
2019-03-22T11:29:33.692Z,1005.63
2019-03-22T11:30:45.195Z,1005.70
2019-03-22T11:31:56.741Z,1005.43
2019-03-22T11:33:08.281Z,1005.87
2019-03-22T11:34:19.801Z,1006.45
2019-03-22T11:35:31.338Z,1006.44
2019-03-22T11:36:42.881Z,1006.50
2019-03-22T11:37:54.440Z,1006.28
2019-03-22T11:39:15.118Z,1006.61
2019-03-22T11:40:17.549Z,1006.62
2019-03-22T11:41:29.123Z,1006.69
2019-03-22T11:42:40.705Z,1006.09
2019-03-22T11:43:52.284Z,1005.84
2019-03-22T11:45:03.899Z,1006.28
2019-03-22T11:46:15.507Z,1006.57
2019-03-22T11:47:27.119Z,1006.26
2019-03-22T11:48:38.749Z,1005.46
2019-03-22T11:49:50.375Z,1006.24
2019-03-22T11:51:02.039Z,1006.38
2019-03-22T11:52:13.683Z,1006.52
2019-03-22T11:53:25.356Z,1006.09
2019-03-22T11:54:37.025Z,1005.78
2019-03-22T11:55:48.710Z,1006.28
2019-03-22T11:57:00.389Z,1006.31
2019-03-22T11:58:12.088Z,1006.25
2019-03-22T11:59:23.770Z,1006.15
2019-03-22T12:00:35.464Z,1006.13
2019-03-22T12:01:47.170Z,1006.11
2019-03-22T12:02:58.865Z,1006.16
2019-03-22T12:04:11.907Z,1006.32
2019-03-22T12:05:22.282Z,1006.39
2019-03-22T12:06:33.998Z,1006.36
2019-03-22T12:07:45.712Z,1006.34
2019-03-22T12:08:57.936Z,1006.50
2019-03-22T12:09:29.022Z,1006.51
2019-03-22T12:10:40.749Z,1006.44
2019-03-22T12:11:52.468Z,1006.08
2019-03-22T12:13:04.210Z,1005.56
2019-03-22T12:14:15.943Z,1006.10
2019-03-22T12:15:27.669Z,1006.16
2019-03-22T12:16:39.394Z,1006.16
2019-03-22T12:17:51.139Z,1006.34
2019-03-22T12:19:02.881Z,1006.21
2019-03-22T12:20:14.625Z,1006.14
2019-03-22T12:21:26.840Z,1006.31
2019-03-22T12:22:38.639Z,1006.36
2019-03-22T12:23:50.316Z,1007.08
2019-03-22T12:25:02.057Z,1007.57
2019-03-22T12:26:13.815Z,1008.00
2019-03-22T12:27:25.561Z,1008.30
2019-03-22T12:28:37.310Z,1008.68
2019-03-22T12:29:49.672Z,1009.01
2019-03-22T12:31:01.412Z,1008.94
2019-03-22T12:32:13.154Z,1008.50
2019-03-22T12:33:24.890Z,1008.38
2019-03-22T12:34:36.642Z,1008.28
2019-03-22T12:35:48.389Z,1008.22
2019-03-22T12:37:00.122Z,1008.24
2019-03-22T12:38:11.860Z,1008.32
2019-03-22T12:39:23.618Z,1007.82
2019-03-22T12:40:35.360Z,1007.52
2019-03-22T12:41:47.103Z,1007.42
2019-03-22T12:42:58.837Z,1007.07
2019-03-22T12:44:10.600Z,1007.03
2019-03-22T12:45:22.346Z,1007.23
2019-03-22T12:46:34.112Z,1007.21
2019-03-22T12:47:45.866Z,1007.35
2019-03-22T12:48:57.637Z,1007.21
2019-03-22T12:50:09.411Z,1007.11
2019-03-22T12:51:22.188Z,1006.66
2019-03-22T12:52:33.971Z,1006.73
2019-03-22T12:53:45.751Z,1006.49
2019-03-22T12:54:57.542Z,1005.77
2019-03-22T12:56:09.326Z,1006.12
2019-03-22T12:57:21.127Z,1006.21
2019-03-22T12:58:32.936Z,1006.09
2019-03-22T12:59:44.751Z,1005.94
2019-03-22T13:00:56.572Z,1005.71
2019-03-22T13:02:08.397Z,1005.67
2019-03-22T13:03:20.222Z,1005.84
2019-03-22T13:04:32.345Z,1006.03
2019-03-22T13:05:44.180Z,1005.28
2019-03-22T13:06:56.018Z,1005.28
2019-03-22T13:08:07.826Z,1004.94
2019-03-22T13:09:19.658Z,1005.00
2019-03-22T13:10:31.485Z,1005.10
2019-03-22T13:11:43.322Z,1004.93
2019-03-22T13:12:55.165Z,1005.01
2019-03-22T13:14:06.993Z,1004.96
2019-03-22T13:15:18.827Z,1005.28
2019-03-22T13:16:30.656Z,1004.85
2019-03-22T13:17:42.490Z,1005.04
2019-03-22T13:18:54.331Z,1005.07
2019-03-22T13:20:06.160Z,1004.87
2019-03-22T13:21:18.001Z,1005.12
2019-03-22T13:22:29.828Z,1004.93
2019-03-22T13:23:41.656Z,1005.22
2019-03-22T13:24:53.790Z,1005.54
2019-03-22T13:26:05.622Z,1005.46
2019-03-22T13:27:17.455Z,1005.33
2019-03-22T13:28:29.274Z,1005.43
2019-03-22T13:29:41.101Z,1005.53
2019-03-22T13:30:52.941Z,1005.16
2019-03-22T13:32:05.256Z,1005.78
2019-03-22T13:33:17.067Z,1005.88
2019-03-22T13:34:29.397Z,1006.08
2019-03-22T13:35:41.217Z,1006.28
2019-03-22T13:36:53.046Z,1006.11
2019-03-22T13:38:04.869Z,1006.02
2019-03-22T13:39:16.689Z,1005.77
2019-03-22T13:40:28.512Z,1006.03
2019-03-22T13:41:40.378Z,1006.03
2019-03-22T13:42:52.141Z,1006.10
2019-03-22T13:44:03.958Z,1006.41
2019-03-22T13:45:15.764Z,1006.25
2019-03-22T13:46:27.587Z,1006.13
2019-03-22T13:47:39.403Z,1006.39
2019-03-22T13:48:51.263Z,1006.22
2019-03-22T13:50:03.055Z,1006.03
2019-03-22T13:51:14.871Z,1005.97
2019-03-22T13:52:26.670Z,1006.05
2019-03-22T13:53:38.468Z,1005.75
2019-03-22T13:54:50.284Z,1005.71
2019-03-22T13:56:02.102Z,1005.93
2019-03-22T13:57:13.895Z,1006.09
2019-03-22T13:58:25.698Z,1006.30
2019-03-22T13:59:37.497Z,1006.24
2019-03-22T14:00:49.779Z,1005.75
2019-03-22T14:02:01.574Z,1006.06
2019-03-22T14:03:13.364Z,1006.46
2019-03-22T14:04:25.143Z,1006.38
2019-03-22T14:05:36.941Z,1006.42
2019-03-22T14:06:48.730Z,1006.50
2019-03-22T14:08:00.508Z,1005.80
2019-03-22T14:09:12.300Z,1006.16
2019-03-22T14:10:24.077Z,1006.18
2019-03-22T14:11:35.866Z,1006.30
2019-03-22T14:12:47.650Z,1006.39
2019-03-22T14:13:59.426Z,1006.12
2019-03-22T14:15:11.690Z,1006.04
2019-03-22T14:16:23.960Z,1006.07
2019-03-22T14:17:36.223Z,1006.36
2019-03-22T14:18:48.021Z,1006.06